Time;durP1;ratioP1;P1;durP2;ratioP2;P2;SDS_P1;SDS_P2;PMS_P1;PMS_P2;Temp;Humidity;BMP_temperature;BMP_pressure;BME280_temperature;BME280_humidity;BME280_pressure;Samples;Min_cycle;Max_cycle;Signal;HPM_P1;HPM_P2
2022/11/15 00:01:33;;;;;;;117.15;52.13;;;;;;;5.84;100.00;100879.88;4954014;29;20046;-72
2022/11/15 00:03:58;;;;;;;132.07;53.42;;;;;;;5.84;100.00;100870.00;4954749;28;20467;-71
2022/11/15 00:06:23;;;;;;;126.05;51.53;;;;;;;5.78;100.00;100875.03;4953815;29;20031;-72
2022/11/15 00:08:49;;;;;;;120.25;51.50;;;;;;;5.78;100.00;100869.66;4954024;29;20027;-72
2022/11/15 00:11:14;;;;;;;132.00;55.60;;;;;;;5.76;100.00;100882.38;4985776;28;20030;-72
2022/11/15 00:13:40;;;;;;;129.07;55.00;;;;;;;5.79;100.00;100877.56;4973791;28;20031;-72
2022/11/15 00:16:05;;;;;;;119.90;52.95;;;;;;;5.81;100.00;100870.25;4973812;28;20027;-72
2022/11/15 00:18:31;;;;;;;109.00;50.17;;;;;;;5.88;100.00;100865.22;4973047;28;20034;-72
2022/11/15 00:21:03;;;;;;;134.70;55.10;;;;;;;5.81;100.00;100864.03;4973088;28;20038;-72
2022/11/15 00:23:29;;;;;;;125.00;53.92;;;;;;;5.80;100.00;100870.38;4972676;28;20117;-72
2022/11/15 00:25:58;;;;;;;119.00;52.78;;;;;;;5.71;100.00;100875.53;4972482;28;20114;-72
2022/11/15 00:28:24;;;;;;;109.93;48.58;;;;;;;5.86;100.00;100872.53;4974330;28;20113;-72
2022/11/15 00:30:49;;;;;;;119.55;51.75;;;;;;;5.77;100.00;100873.31;4974165;28;20065;-72
2022/11/15 00:33:15;;;;;;;115.22;50.50;;;;;;;5.91;100.00;100881.13;4972628;28;20033;-72
2022/11/15 00:35:40;;;;;;;115.00;50.10;;;;;;;5.92;100.00;100877.44;4972892;28;20488;-72
2022/11/15 00:38:06;;;;;;;113.68;49.08;;;;;;;6.06;100.00;100874.44;4973674;28;20113;-72
2022/11/15 00:40:32;;;;;;;114.70;47.97;;;;;;;5.98;100.00;100887.69;4963805;28;20065;-72
2022/11/15 00:42:58;;;;;;;127.28;55.53;;;;;;;6.11;100.00;100877.59;4970044;28;20105;-72
2022/11/15 00:45:24;;;;;;;101.85;46.67;;;;;;;5.97;100.00;100876.09;4941629;28;20523;-72
2022/11/15 00:47:49;;;;;;;117.35;50.70;;;;;;;5.93;100.00;100868.41;4934016;29;20039;-72
2022/11/15 00:50:15;;;;;;;121.05;52.53;;;;;;;5.80;100.00;100867.69;4935289;29;20027;-72
2022/11/15 00:52:41;;;;;;;111.97;49.88;;;;;;;5.82;100.00;100871.13;4949863;28;20032;-71
2022/11/15 00:55:13;;;;;;;107.72;47.78;;;;;;;5.75;100.00;100864.53;4949237;29;20081;-72
2022/11/15 00:57:38;;;;;;;;;;;;;;;5.82;100.00;100868.44;4934450;29;20035;-71
2022/11/15 01:00:04;;;;;;;112.65;49.15;;;;;;;5.84;100.00;100874.50;4943373;29;19922;-71
2022/11/15 01:02:30;;;;;;;91.70;44.55;;;;;;;5.83;100.00;100878.19;4933800;29;20046;-71
2022/11/15 01:04:55;;;;;;;95.50;44.70;;;;;;;5.87;100.00;100874.28;4949481;29;20039;-71
2022/11/15 01:07:20;;;;;;;91.70;43.75;;;;;;;5.83;100.00;100867.44;4933650;29;20253;-71
2022/11/15 01:09:46;;;;;;;86.63;43.72;;;;;;;5.88;100.00;100870.59;4955524;28;20098;-71
2022/11/15 01:12:11;;;;;;;92.95;45.80;;;;;;;6.12;100.00;100863.19;4953170;28;20047;-71
2022/11/15 01:14:36;;;;;;;88.40;44.90;;;;;;;6.21;100.00;100857.03;4952592;29;20122;-71
2022/11/15 01:17:02;;;;;;;89.07;42.63;;;;;;;6.16;100.00;100864.63;4953802;28;20439;-73
2022/11/15 01:19:27;;;;;;;90.03;43.67;;;;;;;6.19;100.00;100859.00;4968544;28;20019;-71
2022/11/15 01:21:52;;;;;;;94.88;45.72;;;;;;;6.36;100.00;100856.72;4953109;29;20043;-71
2022/11/15 01:24:18;;;;;;;82.65;39.85;;;;;;;6.23;100.00;100857.75;4953177;28;20117;-71
2022/11/15 01:26:43;;;;;;;99.03;47.45;;;;;;;6.29;100.00;100847.47;4952710;29;20086;-72
2022/11/15 01:29:08;;;;;;;96.35;45.63;;;;;;;6.22;100.00;100853.34;4952409;29;20027;-71
2022/11/15 01:31:34;;;;;;;98.90;45.88;;;;;;;6.29;100.00;100847.47;4953673;28;20050;-72
2022/11/15 01:33:59;;;;;;;88.00;40.88;;;;;;;6.23;100.00;100844.31;4953446;28;20039;-72
2022/11/15 01:36:24;;;;;;;90.43;43.30;;;;;;;6.11;100.00;100845.34;4952408;29;20039;-72
2022/11/15 01:38:55;;;;;;;93.53;45.45;;;;;;;6.15;100.00;100841.44;4953612;28;20050;-72
2022/11/15 01:41:26;;;;;;;113.28;47.92;;;;;;;5.93;100.00;100837.03;4957467;28;20027;-72
2022/11/15 01:43:54;;;;;;;91.50;42.88;;;;;;;5.85;100.00;100838.59;4966726;28;20179;-72
2022/11/15 01:46:37;;;;;;;91.75;42.63;;;;;;;6.03;100.00;100837.09;4949768;29;20065;-72
2022/11/15 01:49:11;;;;;;;99.20;45.47;;;;;;;5.96;100.00;100831.38;4949295;29;20023;-72
2022/11/15 01:51:37;;;;;;;95.70;45.72;;;;;;;6.08;100.00;100829.50;4934517;29;20381;-72
2022/11/15 01:54:12;;;;;;;104.72;47.00;;;;;;;5.87;100.00;100844.72;4948858;29;20046;-71
2022/11/15 01:56:46;;;;;;;107.05;47.15;;;;;;;5.62;100.00;100844.06;4949255;29;20039;-72
2022/11/15 01:59:12;;;;;;;122.35;50.15;;;;;;;5.63;100.00;100840.41;4939898;29;20209;-72
2022/11/15 02:01:38;;;;;;;110.35;49.40;;;;;;;5.60;100.00;100819.16;4952379;29;20088;-72
2022/11/15 02:04:30;;;;;;;105.68;46.50;;;;;;;5.59;100.00;100817.44;4951688;29;20039;-72
2022/11/15 02:06:56;;;;;;;91.45;41.25;;;;;;;5.65;100.00;100816.94;4952509;29;20082;-72
2022/11/15 02:09:22;;;;;;;106.32;45.42;;;;;;;5.54;100.00;100808.06;4952912;28;20427;-72
2022/11/15 02:11:49;;;;;;;106.18;45.28;;;;;;;5.41;100.00;100813.59;4970889;28;20015;-72
2022/11/15 02:14:18;;;;;;;104.47;47.25;;;;;;;5.59;100.00;100812.09;4970834;28;20023;-72
2022/11/15 02:17:09;;;;;;;94.43;43.55;;;;;;;5.55;100.00;100810.66;4971290;28;20093;-72
2022/11/15 02:20:08;;;;;;;126.05;48.20;;;;;;;5.55;100.00;100816.03;4971441;28;20033;-72
2022/11/15 02:23:13;;;;;;;115.45;47.10;;;;;;;5.38;100.00;100808.50;4970952;28;20077;-72
2022/11/15 02:26:07;;;;;;;103.57;47.22;;;;;;;5.36;100.00;100815.84;4957909;28;20121;-72
2022/11/15 02:28:43;;;;;;;99.75;43.70;;;;;;;5.32;100.00;100814.38;4963906;28;20028;-72
2022/11/15 02:31:27;;;;;;;114.85;47.78;;;;;;;5.42;100.00;100809.97;4933726;29;20024;-72
2022/11/15 02:33:57;;;;;;;90.55;43.28;;;;;;;5.32;100.00;100814.38;4932411;29;20027;-72
2022/11/15 02:36:29;;;;;;;117.82;47.55;;;;;;;5.30;100.00;100801.09;4933286;29;20166;-72
2022/11/15 02:39:17;;;;;;;101.18;43.97;;;;;;;5.29;100.00;100798.53;4934636;28;20572;-72
2022/11/15 02:45:04;;;;;;;93.72;41.97;;;;;;;5.16;100.00;100794.16;4933163;29;20118;-72
2022/11/15 02:47:30;;;;;;;;;;;;;;;4.89;100.00;100794.56;4934246;29;20036;-71
2022/11/15 02:50:00;;;;;;;87.68;39.42;;;;;;;5.03;100.00;100788.09;4933965;29;19911;-71
2022/11/15 02:52:26;;;;;;;93.97;43.47;;;;;;;5.21;100.00;100800.97;4933974;29;20493;-72
2022/11/15 02:54:59;;;;;;;83.18;41.03;;;;;;;5.07;100.00;100789.53;4933615;29;20035;-72
2022/11/15 02:57:45;;;;;;;90.40;39.85;;;;;;;5.30;100.00;100794.84;4933785;29;20074;-71
2022/11/15 03:00:16;;;;;;;87.35;43.35;;;;;;;5.26;100.00;100798.75;4961394;28;20031;-71
2022/11/15 03:03:03;;;;;;;93.33;44.20;;;;;;;5.15;100.00;100792.47;4951899;29;20123;-71
2022/11/15 03:05:58;;;;;;;107.60;46.88;;;;;;;5.29;100.00;100787.78;4951056;28;20503;-71
2022/11/15 03:08:32;;;;;;;107.32;46.05;;;;;;;5.10;100.00;100791.97;4955650;28;20078;-71
2022/11/15 03:11:04;;;;;;;105.60;46.28;;;;;;;5.14;100.00;100789.88;4983754;28;20026;-71
2022/11/15 03:13:48;;;;;;;112.63;48.83;;;;;;;4.99;100.00;100792.00;4973905;28;20031;-72
2022/11/15 03:16:22;;;;;;;99.65;44.60;;;;;;;5.20;100.00;100791.22;4974842;28;20038;-71
2022/11/15 03:18:52;;;;;;;97.00;42.65;;;;;;;5.20;100.00;100788.53;4973982;28;20534;-71
2022/11/15 03:21:21;;;;;;;89.13;41.78;;;;;;;5.26;100.00;100788.03;4975597;28;20035;-71
2022/11/15 03:23:49;;;;;;;115.18;47.58;;;;;;;5.29;100.00;100794.00;4974907;28;20110;-72
2022/11/15 03:26:18;;;;;;;87.72;40.13;;;;;;;5.28;100.00;100788.75;4973585;28;20039;-71
2022/11/15 03:28:52;;;;;;;103.72;43.25;;;;;;;5.30;100.00;100794.84;4975009;28;20019;-72
2022/11/15 03:34:10;;;;;;;93.32;42.53;;;;;;;5.14;100.00;100785.38;4975193;28;20033;-71
2022/11/15 03:36:37;;;;;;;97.00;42.33;;;;;;;5.22;100.00;100791.97;4973630;28;20034;-71
2022/11/15 03:39:07;;;;;;;91.82;41.97;;;;;;;5.29;100.00;100787.78;4979890;28;20035;-71
2022/11/15 03:41:43;;;;;;;96.90;44.25;;;;;;;5.28;100.00;100788.75;4959091;28;20023;-71
2022/11/15 03:44:20;;;;;;;89.45;41.25;;;;;;;5.31;100.00;100785.81;4935664;29;20024;-71
2022/11/15 03:47:05;;;;;;;117.82;46.10;;;;;;;5.02;100.00;100775.66;4934978;29;20362;-72
2022/11/15 03:49:34;;;;;;;116.78;43.95;;;;;;;4.77;100.00;100770.56;4950806;29;20070;-70
2022/11/15 03:52:03;;;;;;;97.43;42.40;;;;;;;4.96;100.00;100776.16;4935859;29;20027;-71
2022/11/15 03:54:28;;;;;;;93.00;42.00;;;;;;;4.94;100.00;100767.34;4950673;29;20828;-72
2022/11/15 03:56:54;;;;;;;79.57;37.75;;;;;;;5.08;100.00;100763.53;4963985;23;20099;-73
2022/11/15 03:59:19;;;;;;;76.22;37.55;;;;;;;5.18;100.00;100765.34;4947749;28;20111;-73
2022/11/15 04:01:45;;;;;;;79.63;37.63;;;;;;;5.33;100.00;100773.97;4948195;29;20132;-73
2022/11/15 04:04:10;;;;;;;76.32;38.45;;;;;;;5.39;100.00;100773.47;4955631;29;20079;-73
2022/11/15 04:06:35;;;;;;;77.75;39.25;;;;;;;5.45;100.00;100782.84;4957285;29;20031;-73
2022/11/15 04:09:01;;;;;;;81.32;38.13;;;;;;;5.42;100.00;100783.13;4956479;28;20019;-73
2022/11/15 04:11:26;;;;;;;75.03;37.10;;;;;;;5.54;100.00;100781.22;4955139;29;20031;-73
2022/11/15 04:13:52;;;;;;;78.80;38.28;;;;;;;5.51;100.00;100771.59;4955024;29;20022;-73
2022/11/15 04:16:17;;;;;;;74.30;34.70;;;;;;;5.53;100.00;100772.31;4955768;28;20479;-73
2022/11/15 04:18:42;;;;;;;71.60;34.22;;;;;;;5.46;100.00;100763.06;4971264;28;20038;-73
2022/11/15 04:26:29;;;;;;;77.45;38.20;;;;;;;5.34;100.00;100777.50;4957738;28;20031;-73
2022/11/15 04:31:38;;;;;;;83.22;37.53;;;;;;;5.33;100.00;100773.13;4956985;29;20117;-73
2022/11/15 04:34:04;;;;;;;80.32;36.95;;;;;;;5.40;100.00;100777.84;4956590;28;20066;-73
2022/11/15 04:39:13;;;;;;;85.35;40.00;;;;;;;5.48;100.00;100777.22;4956950;29;20023;-73
2022/11/15 04:41:38;;;;;;;74.38;36.88;;;;;;;5.53;100.00;100780.38;4955582;29;20027;-73
2022/11/15 04:44:04;;;;;;;79.70;39.35;;;;;;;5.43;100.00;100790.19;4970933;28;20023;-73
2022/11/15 04:46:29;;;;;;;87.35;39.10;;;;;;;5.39;100.00;100778.84;4971803;28;20027;-73
2022/11/15 04:48:55;;;;;;;66.25;32.83;;;;;;;5.59;100.00;100773.63;4971184;28;20023;-73
2022/11/15 04:51:21;;;;;;;66.20;32.28;;;;;;;5.67;100.00;100777.41;4954032;28;20034;-73
2022/11/15 04:53:46;;;;;;;77.80;37.13;;;;;;;5.86;100.00;100791.94;4953217;29;20031;-73
2022/11/15 04:56:11;;;;;;;78.45;36.88;;;;;;;5.86;100.00;100781.19;4956642;28;20534;-74
2022/11/15 04:58:37;;;;;;;66.45;32.30;;;;;;;5.87;100.00;100782.91;4955783;28;20065;-73
2022/11/15 05:01:11;;;;;;;74.50;37.50;;;;;;;5.96;100.00;100777.63;4955223;29;20027;-73
2022/11/15 05:06:21;;;;;;;81.38;38.22;;;;;;;6.15;100.00;100776.91;4955986;29;20070;-72
2022/11/15 05:08:47;;;;;;;73.28;36.00;;;;;;;6.17;100.00;100780.31;4955710;28;20019;-74
2022/11/15 05:11:12;;;;;;;69.30;33.28;;;;;;;6.21;100.00;100781.75;4955775;28;20090;-73
2022/11/15 05:13:37;;;;;;;69.88;35.47;;;;;;;6.20;100.00;100779.22;4955326;28;20023;-73
2022/11/15 05:16:03;;;;;;;82.32;36.42;;;;;;;6.24;100.00;100775.25;4955204;29;20058;-73
2022/11/15 05:18:28;;;;;;;78.05;35.05;;;;;;;6.20;100.00;100780.06;4956228;28;20031;-73
2022/11/15 05:20:54;;;;;;;87.45;38.92;;;;;;;6.01;100.00;100774.56;4955532;28;20019;-73
2022/11/15 05:23:19;;;;;;;83.57;37.10;;;;;;;6.00;100.00;100762.13;4956071;28;20046;-73
2022/11/15 05:25:45;;;;;;;76.63;36.70;;;;;;;6.05;100.00;100781.34;4952457;29;20039;-73
2022/11/15 05:28:10;;;;;;;73.50;34.50;;;;;;;6.22;100.00;100767.31;4938942;28;20106;-74
2022/11/15 05:30:36;;;;;;;64.35;32.75;;;;;;;6.15;100.00;100763.47;4954240;29;20027;-74
2022/11/15 05:33:01;;;;;;;69.53;33.33;;;;;;;6.34;100.00;100759.19;4955651;29;20054;-74
2022/11/15 05:35:36;;;;;;;74.25;35.83;;;;;;;6.38;100.00;100757.91;4955210;29;20098;-74
2022/11/15 05:38:02;;;;;;;70.30;32.63;;;;;;;6.25;100.00;100758.97;4956521;28;20395;-74
2022/11/15 05:40:29;;;;;;;74.32;33.70;;;;;;;6.46;100.00;100763.50;4955829;29;20024;-73
2022/11/15 05:42:55;;;;;;;62.15;32.05;;;;;;;6.51;100.00;100766.63;4956434;28;20031;-74
2022/11/15 05:45:20;;;;;;;78.78;37.47;;;;;;;6.57;100.00;100766.06;4955488;29;20046;-74
2022/11/15 05:47:48;;;;;;;80.88;35.25;;;;;;;6.65;100.00;100768.97;4955643;29;20069;-74
2022/11/15 05:50:17;;;;;;;72.90;36.15;;;;;;;6.57;100.00;100765.22;4955866;29;20170;-73
2022/11/15 05:52:43;;;;;;;69.03;34.50;;;;;;;6.78;100.00;100769.59;4957438;28;20035;-74
2022/11/15 05:55:09;;;;;;;70.78;35.25;;;;;;;6.69;100.00;100770.38;4952461;28;20034;-74
2022/11/15 05:57:36;;;;;;;67.78;35.03;;;;;;;6.77;100.00;100767.84;4952980;28;20059;-73
2022/11/15 06:00:03;;;;;;;62.42;33.40;;;;;;;6.88;100.00;100771.44;4965770;28;20062;-73
2022/11/15 06:02:28;;;;;;;70.63;34.10;;;;;;;7.03;100.00;100772.75;4957305;29;20034;-74
2022/11/15 06:04:54;;;;;;;72.22;36.03;;;;;;;6.89;100.00;100770.44;4956751;28;20031;-74
2022/11/15 06:07:19;;;;;;;75.28;35.33;;;;;;;6.91;100.00;100771.16;4956900;29;20027;-74
2022/11/15 06:09:45;;;;;;;60.25;31.17;;;;;;;6.91;100.00;100779.22;4957336;28;20024;-74
2022/11/15 06:12:10;;;;;;;61.17;30.45;;;;;;;6.83;100.00;100771.00;4956876;29;20038;-73
2022/11/15 06:14:35;;;;;;;68.68;33.80;;;;;;;6.68;100.00;100773.22;4956833;29;20046;-74
2022/11/15 06:17:01;;;;;;;78.05;36.42;;;;;;;6.52;100.00;100779.97;4956730;29;20042;-74
2022/11/15 06:19:27;;;;;;;70.00;34.95;;;;;;;6.65;100.00;100778.84;4956810;28;20031;-74
2022/11/15 06:21:52;;;;;;;77.22;35.55;;;;;;;6.62;100.00;100779.13;4956830;29;20039;-73
2022/11/15 06:24:18;;;;;;;72.50;36.10;;;;;;;6.68;100.00;100790.19;4955859;29;20031;-73
2022/11/15 06:26:43;;;;;;;70.13;36.03;;;;;;;6.68;100.00;100784.81;4955694;29;20058;-74
2022/11/15 06:29:08;;;;;;;73.05;36.83;;;;;;;6.74;100.00;100784.28;4954738;29;20024;-73
2022/11/15 06:31:34;;;;;;;66.65;35.55;;;;;;;6.79;100.00;100779.34;4956477;28;20031;-74
2022/11/15 06:34:00;;;;;;;66.47;36.22;;;;;;;6.80;100.00;100791.81;4954067;29;20027;-75
2022/11/15 06:36:25;;;;;;;69.72;38.10;;;;;;;6.80;100.00;100791.81;4946107;28;20079;-73
2022/11/15 06:38:50;;;;;;;78.50;40.50;;;;;;;6.79;100.00;100792.81;4937704;29;20031;-73
2022/11/15 06:41:17;;;;;;;66.40;35.25;;;;;;;6.89;100.00;100791.97;4954689;28;20028;-73
2022/11/15 06:43:43;;;;;;;78.57;38.40;;;;;;;6.70;100.00;100782.84;4955545;29;20074;-73
2022/11/15 06:46:08;;;;;;;65.00;35.53;;;;;;;6.76;100.00;100793.06;4955398;28;20118;-74
2022/11/15 06:48:34;;;;;;;69.88;35.17;;;;;;;6.87;100.00;100799.34;4955228;29;20019;-74
2022/11/15 06:51:01;;;;;;;63.63;33.05;;;;;;;6.84;100.00;100804.97;4959540;28;20027;-74
2022/11/15 06:53:27;;;;;;;83.70;37.38;;;;;;;6.95;100.00;100796.81;4958316;28;20038;-74
2022/11/15 06:55:53;;;;;;;64.43;33.30;;;;;;;6.69;100.00;100799.13;4973203;28;20491;-74
2022/11/15 06:58:21;;;;;;;76.90;37.40;;;;;;;6.63;100.00;100800.50;4958520;28;20031;-74
2022/11/15 07:00:46;;;;;;;62.80;33.95;;;;;;;6.73;100.00;100798.72;4973114;28;20095;-73
2022/11/15 07:03:12;;;;;;;67.47;34.97;;;;;;;6.62;100.00;100801.50;4957197;29;20050;-74
2022/11/15 07:05:37;;;;;;;64.10;33.83;;;;;;;6.59;100.00;100801.78;4973695;28;20101;-74
2022/11/15 07:08:03;;;;;;;70.43;36.33;;;;;;;6.72;100.00;100802.41;4961514;28;20035;-74
2022/11/15 07:10:29;;;;;;;65.68;32.40;;;;;;;6.79;100.00;100803.56;4973487;28;20078;-74
2022/11/15 07:12:55;;;;;;;71.68;34.95;;;;;;;6.80;100.00;100810.66;4959242;28;20058;-74
2022/11/15 07:15:23;;;;;;;66.22;34.92;;;;;;;6.80;100.00;100813.34;4957331;29;20022;-74
2022/11/15 07:17:49;;;;;;;61.38;34.15;;;;;;;6.92;100.00;100808.72;4955585;29;20019;-74
2022/11/15 07:20:25;;;;;;;52.88;30.45;;;;;;;6.87;100.00;100812.81;4957490;28;20496;-74
2022/11/15 07:22:59;;;;;;;65.22;34.03;;;;;;;7.02;100.00;100819.50;4952519;29;20110;-70
2022/11/15 07:25:25;;;;;;;59.50;32.63;;;;;;;7.19;100.00;100816.16;4971297;28;20054;-71
2022/11/15 07:27:55;;;;;;;59.75;31.58;;;;;;;7.34;100.00;100809.38;4955125;28;20027;-71
2022/11/15 07:30:20;;;;;;;55.63;30.95;;;;;;;7.39;100.00;100810.81;4963670;28;20475;-71
2022/11/15 07:32:46;;;;;;;55.33;31.33;;;;;;;7.20;100.00;100828.63;4956876;29;20046;-70
2022/11/15 07:35:11;;;;;;;57.00;31.33;;;;;;;7.28;100.00;100815.31;4957563;28;20034;-72
2022/11/15 07:37:37;;;;;;;57.17;32.63;;;;;;;7.15;100.00;100820.13;4971524;28;20027;-72
2022/11/15 07:40:02;;;;;;;64.97;32.67;;;;;;;7.08;100.00;100821.66;4973285;28;20062;-71
2022/11/15 07:45:15;;;;;;;62.65;31.73;;;;;;;7.21;100.00;100822.25;4958013;29;20038;-71
2022/11/15 07:47:40;;;;;;;64.43;34.17;;;;;;;7.13;100.00;100827.47;4951112;28;20027;-72
2022/11/15 07:50:06;;;;;;;54.72;28.60;;;;;;;7.22;100.00;100829.34;4937485;28;20023;-72
2022/11/15 07:52:31;;;;;;;61.15;31.23;;;;;;;7.30;100.00;100813.38;4947823;28;20032;-71
2022/11/15 07:54:56;;;;;;;61.50;31.80;;;;;;;7.22;100.00;100825.78;4948158;28;20035;-71
2022/11/15 07:57:22;;;;;;;63.58;33.90;;;;;;;7.30;100.00;100818.75;4956114;28;20537;-70
2022/11/15 07:59:47;;;;;;;52.40;29.83;;;;;;;7.27;100.00;100813.63;4948899;28;20038;-71
2022/11/15 08:02:13;;;;;;;59.17;31.10;;;;;;;7.25;100.00;100815.63;4956721;28;20103;-70
2022/11/15 08:04:38;;;;;;;55.72;29.40;;;;;;;7.26;100.00;100811.94;4965560;28;20016;-71
2022/11/15 08:07:03;;;;;;;56.03;29.05;;;;;;;7.34;100.00;100809.38;4955273;28;20023;-72
2022/11/15 08:09:29;;;;;;;57.00;31.23;;;;;;;7.23;100.00;100822.97;4944419;28;20023;-71
2022/11/15 08:11:54;;;;;;;59.42;33.45;;;;;;;7.11;100.00;100823.19;4956530;28;20085;-72
2022/11/15 08:14:21;;;;;;;59.55;31.13;;;;;;;7.12;100.00;100817.72;4949425;28;20043;-71
2022/11/15 08:16:47;;;;;;;60.92;31.02;;;;;;;7.01;100.00;100817.81;4958153;28;20038;-69
2022/11/15 08:19:12;;;;;;;53.05;30.65;;;;;;;7.29;100.00;100806.25;4968293;28;20027;-71
2022/11/15 08:21:38;;;;;;;53.72;28.83;;;;;;;7.52;100.00;100812.25;4950752;28;20092;-71
2022/11/15 08:24:04;;;;;;;46.00;27.40;;;;;;;7.60;100.00;100806.16;4960829;28;20050;-71
2022/11/15 08:26:29;;;;;;;53.97;29.60;;;;;;;7.61;100.00;100810.56;4945287;28;20066;-72
2022/11/15 08:28:55;;;;;;;60.28;30.13;;;;;;;7.51;100.00;100812.41;4968651;28;20030;-69
2022/11/15 08:31:20;;;;;;;61.60;29.35;;;;;;;7.63;100.00;100803.19;4950173;28;20031;-72
2022/11/15 08:33:46;;;;;;;56.28;29.17;;;;;;;7.62;100.00;100802.31;4953941;28;20035;-71
2022/11/15 08:36:14;;;;;;;51.53;29.38;;;;;;;7.77;100.00;100808.16;4957091;28;20089;-71
2022/11/15 08:38:40;;;;;;;55.03;28.13;;;;;;;7.65;100.00;100811.13;4977514;28;20031;-71
2022/11/15 08:41:06;;;;;;;55.80;27.90;;;;;;;7.76;100.00;100809.16;4955192;28;20046;-71
2022/11/15 08:43:31;;;;;;;54.85;29.05;;;;;;;7.63;100.00;100808.59;4955820;28;20023;-71
2022/11/15 08:45:57;;;;;;;48.88;28.33;;;;;;;7.58;100.00;100816.25;4961215;28;20035;-72
2022/11/15 08:48:23;;;;;;;50.25;28.33;;;;;;;7.71;100.00;100806.03;4951576;28;20028;-70
2022/11/15 08:50:48;;;;;;;57.83;29.90;;;;;;;7.52;100.00;100806.03;4964515;28;20041;-71
2022/11/15 08:53:14;;;;;;;56.30;31.05;;;;;;;7.32;100.00;100806.00;4961300;28;20026;-70
2022/11/15 08:55:40;;;;;;;51.20;28.80;;;;;;;7.36;100.00;100817.31;4947791;28;20027;-72
2022/11/15 08:58:06;;;;;;;49.08;27.45;;;;;;;7.43;100.00;100820.31;4948072;28;20035;-71
2022/11/15 09:00:33;;;;;;;52.33;27.63;;;;;;;7.57;100.00;100819.94;4947561;28;20114;-70
2022/11/15 09:02:59;;;;;;;52.13;27.55;;;;;;;7.64;100.00;100815.69;4948924;28;20027;-72
2022/11/15 09:05:25;;;;;;;49.78;27.85;;;;;;;7.70;100.00;100815.13;4949270;28;20034;-73
2022/11/15 09:07:54;;;;;;;51.35;26.98;;;;;;;7.69;100.00;100809.84;4948964;28;20042;-70
2022/11/15 09:10:21;;;;;;;52.03;26.73;;;;;;;7.71;100.00;100806.03;4947830;28;20028;-72
2022/11/15 09:12:48;;;;;;;49.90;27.02;;;;;;;7.72;100.00;100812.28;4940415;28;20028;-71
2022/11/15 09:15:14;;;;;;;48.70;26.90;;;;;;;7.88;100.00;100818.78;4959231;28;20023;-71
2022/11/15 09:17:40;;;;;;;45.63;26.50;;;;;;;7.95;100.00;100807.44;4942190;28;20023;-71
2022/11/15 09:20:06;;;;;;;46.80;26.95;;;;;;;7.98;100.00;100812.56;4963765;28;20097;-70
2022/11/15 09:22:32;;;;;;;42.42;25.52;;;;;;;8.31;100.00;100814.78;4955794;28;20098;-71
2022/11/15 09:24:57;;;;;;;40.95;25.38;;;;;;;8.23;100.00;100817.34;4955387;28;20134;-72
2022/11/15 09:27:27;;;;;;;41.97;25.23;;;;;;;8.19;100.00;100815.94;4945395;28;20087;-70
2022/11/15 09:29:53;;;;;;;46.13;24.52;;;;;;;8.23;100.00;100811.97;4944646;28;20099;-70
2022/11/15 09:32:18;;;;;;;50.55;25.95;;;;;;;8.32;100.00;100816.47;4950037;28;20496;-71
2022/11/15 09:34:43;;;;;;;40.58;24.08;;;;;;;8.48;100.00;100825.88;4961122;28;20046;-70
2022/11/15 09:37:09;;;;;;;45.33;26.33;;;;;;;8.45;100.00;100809.94;4952094;28;20492;-71
2022/11/15 09:39:34;;;;;;;40.30;24.63;;;;;;;8.50;100.00;100813.06;4960435;28;20101;-69
2022/11/15 09:42:26;;;;;;;46.15;24.42;;;;;;;8.74;100.00;100810.72;4964714;28;20105;-71
2022/11/15 09:44:58;;;;;;;;;;;;;;;8.84;100.00;100802.56;4946328;28;20023;-70
2022/11/15 09:47:45;;;;;;;44.70;25.00;;;;;;;8.83;100.00;100808.97;4946385;28;19934;-71
2022/11/15 09:50:17;;;;;;;44.67;23.50;;;;;;;8.73;100.00;100814.38;4947581;28;20130;-70
2022/11/15 09:52:45;;;;;;;42.90;24.63;;;;;;;8.69;100.00;100815.72;4947183;28;20027;-70
2022/11/15 09:55:21;;;;;;;45.25;22.88;;;;;;;8.76;100.00;100824.91;4946053;28;20035;-71
2022/11/15 09:58:00;;;;;;;37.47;21.70;;;;;;;8.88;100.00;100823.72;4943901;28;20043;-71
2022/11/15 10:00:40;;;;;;;35.38;21.98;;;;;;;9.03;100.00;100817.84;4941591;28;20023;-71
2022/11/15 10:03:23;;;;;;;40.67;22.05;;;;;;;9.41;100.00;100814.91;4950020;28;20038;-73
2022/11/15 10:05:51;;;;;;;41.13;22.20;;;;;;;9.40;100.00;100813.22;4955880;28;20026;-71
2022/11/15 10:08:32;;;;;;;38.38;21.02;;;;;;;9.52;100.00;100812.00;4960505;28;20551;-72
2022/11/15 10:11:01;;;;;;;40.40;21.67;;;;;;;9.70;100.00;100813.84;4954069;28;20034;-72
2022/11/15 10:13:29;;;;;;;36.60;22.02;;;;;;;9.70;100.00;100813.84;4969312;23;20056;-71
2022/11/15 10:16:19;;;;;;;36.65;21.30;;;;;;;9.81;100.00;100800.09;4950025;28;20058;-69
2022/11/15 10:18:53;;;;;;;36.30;19.67;;;;;;;9.91;100.00;100800.88;4950846;29;20027;-71
2022/11/15 10:21:33;;;;;;;29.67;19.02;;;;;;;10.07;99.91;100801.00;4949591;29;20035;-71
2022/11/15 10:24:00;;;;;;;41.78;20.35;;;;;;;9.87;100.00;100799.50;4951366;29;20173;-70
2022/11/15 10:26:26;;;;;;;29.88;18.50;;;;;;;10.07;100.00;100801.00;4951779;29;20049;-69
2022/11/15 10:28:51;;;;;;;36.75;18.08;;;;;;;10.35;99.06;100798.19;4953474;28;20167;-70
2022/11/15 10:31:27;;;;;;;33.97;19.65;;;;;;;10.11;100.00;100795.31;4952410;29;20030;-72
2022/11/15 10:34:18;;;;;;;37.67;18.52;;;;;;;10.20;100.00;100788.94;4951033;29;20027;-69
2022/11/15 10:36:56;;;;;;;38.30;21.13;;;;;;;10.24;100.00;100784.94;4951139;29;20034;-70
2022/11/15 10:39:21;;;;;;;26.95;17.30;;;;;;;10.34;100.00;100785.69;4951420;29;20039;-70
2022/11/15 10:41:46;;;;;;;32.95;17.02;;;;;;;10.40;99.74;100779.63;4951899;28;20078;-69
2022/11/15 10:44:25;;;;;;;31.23;16.00;;;;;;;10.28;100.00;100764.66;4952878;28;20038;-69
2022/11/15 10:46:54;;;;;;;28.83;15.73;;;;;;;10.27;100.00;100773.78;4951706;29;20110;-70
2022/11/15 10:49:25;;;;;;;33.35;16.88;;;;;;;10.42;100.00;100771.34;4950303;29;20114;-70
2022/11/15 10:52:00;;;;;;;23.77;14.40;;;;;;;10.54;99.55;100764.66;4950448;29;20023;-71
2022/11/15 10:54:43;;;;;;;25.05;15.60;;;;;;;10.41;100.00;100759.66;4951533;28;20032;-71
2022/11/15 10:57:15;;;;;;;35.33;17.88;;;;;;;10.30;100.00;100768.94;4950466;29;20098;-70
2022/11/15 11:00:26;;;;;;;32.85;15.55;;;;;;;10.46;100.00;100767.31;4950058;29;20023;-70
2022/11/15 11:02:51;;;;;;;33.72;17.02;;;;;;;10.49;100.00;100757.00;4950207;29;20461;-70
2022/11/15 11:05:36;;;;;;;30.42;15.90;;;;;;;10.49;99.85;100753.44;4951538;29;20065;-71
2022/11/15 11:08:21;;;;;;;26.88;15.38;;;;;;;10.63;100.00;100747.47;4951763;28;20097;-70
2022/11/15 11:10:55;;;;;;;24.08;14.80;;;;;;;10.58;99.92;100750.66;4951399;28;20023;-70
2022/11/15 11:13:25;;;;;;;27.58;15.00;;;;;;;10.62;100.00;100745.72;4950082;29;20038;-68
2022/11/15 11:16:22;;;;;;;27.77;15.63;;;;;;;10.98;98.83;100745.56;4951357;29;20031;-70
2022/11/15 11:19:04;;;;;;;23.83;14.18;;;;;;;10.77;99.34;100735.16;4947336;29;20034;-71
2022/11/15 11:21:49;;;;;;;32.42;15.90;;;;;;;10.95;98.87;100733.19;4947360;29;20015;-71
2022/11/15 11:24:26;;;;;;;23.90;14.10;;;;;;;11.22;97.52;100731.25;4931641;29;20035;-70
2022/11/15 11:27:07;;;;;;;26.85;14.10;;;;;;;11.05;97.99;100736.59;4930905;29;20042;-71
2022/11/15 11:29:51;;;;;;;24.20;14.50;;;;;;;11.28;97.62;100734.16;4932044;29;20031;-71
2022/11/15 11:32:39;;;;;;;27.33;15.82;;;;;;;11.23;96.96;100732.94;4946777;29;20027;-70
2022/11/15 11:35:22;;;;;;;25.05;16.02;;;;;;;11.13;97.60;100727.66;4930464;29;20028;-71
2022/11/15 11:37:54;;;;;;;37.70;17.00;;;;;;;11.26;96.85;100727.16;4931137;29;20087;-71
2022/11/15 11:40:43;;;;;;;27.35;15.82;;;;;;;11.26;97.24;100732.59;4946423;29;20027;-71
2022/11/15 11:43:33;;;;;;;25.67;15.88;;;;;;;11.07;98.21;100723.75;4931765;29;20035;-71